createdAt,value
2019-04-26T00:00:36.094Z,96850.00
2019-04-26T00:03:10.060Z,96852.00
2019-04-26T00:05:41.787Z,96853.00
2019-04-26T00:08:13.704Z,96844.00
2019-04-26T00:11:00.360Z,96835.00
2019-04-26T00:14:05.748Z,96841.00
2019-04-26T00:16:56.164Z,96850.00
2019-04-26T00:19:28.032Z,96860.00
2019-04-26T00:21:59.689Z,96863.00
2019-04-26T00:24:31.234Z,96876.00
2019-04-26T00:27:02.690Z,96868.00
2019-04-26T00:29:34.054Z,96870.00
2019-04-26T00:32:05.680Z,96889.00
2019-04-26T00:34:37.332Z,96886.00
2019-04-26T00:37:08.820Z,96886.00
2019-04-26T00:39:40.218Z,96886.00
2019-04-26T00:42:13.161Z,96889.00
2019-04-26T00:44:45.558Z,96902.00
2019-04-26T00:47:19.100Z,96880.00
2019-04-26T00:49:50.736Z,96872.00
2019-04-26T00:52:23.906Z,96872.00
2019-04-26T00:54:57.435Z,96869.00
2019-04-26T00:57:31.374Z,96862.00
2019-04-26T01:00:04.070Z,96868.00
2019-04-26T01:02:41.006Z,96872.00
2019-04-26T01:05:12.397Z,96853.00
2019-04-26T01:07:45.514Z,96856.00
2019-04-26T01:10:19.682Z,96853.00
2019-04-26T01:12:51.177Z,96851.00
2019-04-26T01:15:23.276Z,96858.00
2019-04-26T01:17:55.761Z,96864.00
2019-04-26T01:20:30.488Z,96852.00
2019-04-26T01:23:06.436Z,96845.00
2019-04-26T01:25:54.261Z,96848.00
2019-04-26T01:28:41.624Z,96841.00
2019-04-26T01:31:13.804Z,96843.00
2019-04-26T01:33:47.216Z,96819.00
2019-04-26T01:36:20.444Z,96840.00
2019-04-26T01:38:56.265Z,96841.00
2019-04-26T01:41:38.157Z,96847.00
2019-04-26T01:44:15.777Z,96847.00
2019-04-26T01:46:48.153Z,96855.00
2019-04-26T01:49:24.190Z,96856.00
2019-04-26T01:52:04.139Z,96868.00
2019-04-26T01:54:42.319Z,96865.00
2019-04-26T01:57:15.160Z,96869.00
2019-04-26T01:59:53.629Z,96865.00
2019-04-26T02:02:47.821Z,96854.00
2019-04-26T02:05:23.983Z,96857.00
2019-04-26T02:07:56.030Z,96857.00
2019-04-26T02:10:28.698Z,96859.00
2019-04-26T02:13:01.045Z,96863.00
2019-04-26T02:15:34.727Z,96857.00
2019-04-26T02:18:06.223Z,96846.00
2019-04-26T02:21:31.901Z,96841.00
2019-04-26T02:24:13.093Z,96849.00
2019-04-26T02:26:46.667Z,96843.00
2019-04-26T02:29:26.641Z,96841.00
2019-04-26T02:32:06.370Z,96850.00
2019-04-26T02:34:38.930Z,96836.00
2019-04-26T02:37:14.180Z,96831.00
2019-04-26T02:39:45.570Z,96842.00
2019-04-26T02:42:43.104Z,96846.00
2019-04-26T02:46:16.723Z,96840.00
2019-04-26T02:49:23.018Z,96855.00
2019-04-26T02:52:29.067Z,96857.00
2019-04-26T02:55:14.951Z,96854.00
2019-04-26T02:57:52.241Z,96859.00
2019-04-26T03:00:23.610Z,96866.00
2019-04-26T03:03:04.357Z,96873.00
2019-04-26T03:05:40.962Z,96859.00
2019-04-26T03:08:19.366Z,96865.00
2019-04-26T03:11:06.688Z,96874.00
2019-04-26T03:14:07.678Z,96862.00
2019-04-26T03:17:05.221Z,96870.00
2019-04-26T03:20:08.285Z,96883.00
2019-04-26T03:23:04.864Z,96880.00
2019-04-26T03:26:20.996Z,96888.00
2019-04-26T03:29:25.770Z,96871.00
2019-04-26T03:32:39.238Z,96878.00
2019-04-26T03:35:41.314Z,96884.00
2019-04-26T03:38:30.816Z,96876.00
2019-04-26T03:41:42.462Z,96882.00
2019-04-26T03:44:27.232Z,96898.00
2019-04-26T03:47:07.514Z,96903.00
2019-04-26T03:50:17.271Z,96909.00
2019-04-26T03:53:42.554Z,96915.00
2019-04-26T03:56:43.508Z,96909.00
2019-04-26T03:59:48.914Z,96911.00
2019-04-26T04:03:04.148Z,96906.00
2019-04-26T04:05:47.729Z,96911.00
2019-04-26T04:08:31.198Z,96919.00
2019-04-26T04:11:09.076Z,96901.00
2019-04-26T04:14:40.493Z,96912.00
2019-04-26T04:17:29.365Z,96918.00
2019-04-26T04:20:57.459Z,96920.00
2019-04-26T04:23:48.821Z,96915.00
2019-04-26T04:26:48.662Z,96934.00
2019-04-26T04:29:54.637Z,96936.00
2019-04-26T04:33:02.597Z,96939.00
2019-04-26T04:35:42.351Z,96923.00
2019-04-26T04:39:11.142Z,96943.00
2019-04-26T04:42:27.538Z,96930.00
2019-04-26T04:45:59.041Z,96926.00
2019-04-26T04:49:24.179Z,96940.00
2019-04-26T04:52:20.268Z,96932.00
2019-04-26T04:55:08.135Z,96961.00
2019-04-26T04:58:15.863Z,96969.00
2019-04-26T05:01:34.984Z,96955.00
2019-04-26T05:04:22.574Z,96953.00
2019-04-26T05:07:40.837Z,96962.00
2019-04-26T05:10:39.952Z,96961.00
2019-04-26T05:13:46.402Z,96954.00
2019-04-26T05:17:09.714Z,96975.00
2019-04-26T05:20:40.883Z,96970.00
2019-04-26T05:24:23.123Z,96969.00
2019-04-26T05:27:33.824Z,96948.00
2019-04-26T05:31:17.706Z,96973.00
2019-04-26T05:34:38.784Z,96964.00
2019-04-26T05:38:17.923Z,96946.00
2019-04-26T05:41:37.095Z,96960.00
2019-04-26T05:44:43.234Z,96950.00
2019-04-26T05:48:03.245Z,96946.00
2019-04-26T05:51:27.338Z,96956.00
2019-04-26T05:54:54.172Z,96945.00
2019-04-26T05:58:08.989Z,96957.00
2019-04-26T06:01:33.340Z,96980.00
2019-04-26T06:04:43.838Z,96981.00
2019-04-26T06:07:50.926Z,96977.00
2019-04-26T06:10:43.601Z,96978.00
2019-04-26T06:13:59.888Z,96971.00
2019-04-26T06:17:33.651Z,96964.00
2019-04-26T06:20:28.968Z,96976.00
2019-04-26T06:24:03.624Z,96985.00
2019-04-26T06:27:13.599Z,96989.00
2019-04-26T06:30:06.500Z,96986.00
2019-04-26T06:33:06.061Z,96981.00
2019-04-26T06:35:42.996Z,96982.00
2019-04-26T06:39:15.525Z,97003.00
2019-04-26T06:42:33.110Z,97015.00
2019-04-26T06:45:43.036Z,97029.00
2019-04-26T06:48:37.380Z,97026.00
2019-04-26T06:51:24.577Z,97037.00
2019-04-26T06:54:21.795Z,97050.00
2019-04-26T06:57:59.936Z,97032.00
2019-04-26T07:01:13.642Z,97048.00
2019-04-26T07:04:44.585Z,97052.00
2019-04-26T07:07:58.345Z,97036.00
2019-04-26T07:11:33.489Z,97032.00
2019-04-26T07:14:45.059Z,97050.00
2019-04-26T07:17:28.228Z,97036.00
2019-04-26T07:20:32.689Z,97037.00
2019-04-26T07:24:21.543Z,97030.00
2019-04-26T07:28:06.135Z,97035.00
2019-04-26T07:31:06.114Z,97034.00
2019-04-26T07:34:22.465Z,97041.00
2019-04-26T07:37:53.585Z,97042.00
2019-04-26T07:41:40.046Z,97041.00
2019-04-26T07:44:51.977Z,97040.00
2019-04-26T07:48:43.379Z,97047.00
2019-04-26T07:52:28.358Z,97059.00
2019-04-26T07:55:34.439Z,97068.00
2019-04-26T07:58:55.290Z,97064.00
2019-04-26T08:02:22.203Z,97085.00
2019-04-26T08:05:05.851Z,97088.00
2019-04-26T08:07:45.486Z,97090.00
2019-04-26T08:10:21.301Z,97093.00
2019-04-26T08:13:10.042Z,97088.00
2019-04-26T08:16:01.167Z,97093.00
2019-04-26T08:18:43.333Z,97099.00
2019-04-26T08:21:31.830Z,97103.00
2019-04-26T08:24:35.162Z,97110.00
2019-04-26T08:27:23.942Z,97097.00
2019-04-26T08:30:05.900Z,97095.00
2019-04-26T08:32:43.764Z,97089.00
2019-04-26T08:35:29.205Z,97104.00
2019-04-26T08:38:16.080Z,97096.00
2019-04-26T08:40:44.079Z,97094.00
2019-04-26T08:43:33.992Z,97098.00
2019-04-26T08:46:20.726Z,97116.00
2019-04-26T08:49:06.418Z,97129.00
2019-04-26T08:51:40.586Z,97110.00
2019-04-26T08:54:20.317Z,97121.00
2019-04-26T08:57:03.977Z,97118.00
2019-04-26T08:59:40.433Z,97122.00
2019-04-26T09:02:55.648Z,97138.00
2019-04-26T09:05:49.971Z,97154.00
2019-04-26T09:08:26.802Z,97153.00
2019-04-26T09:11:03.084Z,97164.00
2019-04-26T09:13:39.802Z,97165.00
2019-04-26T09:16:17.953Z,97154.00
2019-04-26T09:18:54.298Z,97165.00
2019-04-26T09:21:38.054Z,97155.00
2019-04-26T09:24:33.051Z,97168.00
2019-04-26T09:27:26.191Z,97182.00
2019-04-26T09:30:07.474Z,97189.00
2019-04-26T09:32:49.998Z,97178.00
2019-04-26T09:35:21.665Z,97172.00
2019-04-26T09:37:53.140Z,97181.00
2019-04-26T09:40:24.596Z,97187.00
2019-04-26T09:43:23.670Z,97185.00
2019-04-26T09:46:18.184Z,97175.00
2019-04-26T09:48:55.900Z,97177.00
2019-04-26T09:51:27.670Z,97168.00
2019-04-26T09:53:59.110Z,97181.00
2019-04-26T09:56:30.463Z,97192.00
2019-04-26T09:59:05.698Z,97192.00
2019-04-26T10:01:35.018Z,97197.00
2019-04-26T10:04:06.447Z,97190.00
2019-04-26T10:06:37.915Z,97189.00
2019-04-26T10:09:21.392Z,97204.00
2019-04-26T10:11:57.496Z,97203.00
2019-04-26T10:14:46.447Z,97194.00
2019-04-26T10:17:28.740Z,97198.00
2019-04-26T10:20:00.172Z,97211.00
2019-04-26T10:22:32.894Z,97210.00
2019-04-26T10:25:08.059Z,97210.00
2019-04-26T10:27:40.736Z,97206.00
2019-04-26T10:30:13.503Z,97199.00
2019-04-26T10:32:44.943Z,97206.00
2019-04-26T10:35:21.568Z,97214.00
2019-04-26T10:37:52.613Z,97214.00
2019-04-26T10:40:35.057Z,97214.00
2019-04-26T10:42:56.763Z,97219.00
2019-04-26T10:45:28.627Z,97226.00
2019-04-26T10:48:01.057Z,97212.00
2019-04-26T10:50:34.455Z,97209.00
2019-04-26T10:53:18.789Z,97210.00
2019-04-26T10:56:07.614Z,97211.00
2019-04-26T10:58:49.091Z,97211.00
2019-04-26T11:01:20.606Z,97202.00
2019-04-26T11:03:52.103Z,97221.00
2019-04-26T11:06:24.157Z,97203.00
2019-04-26T11:08:56.756Z,97212.00
2019-04-26T11:11:28.215Z,97207.00
2019-04-26T11:13:59.705Z,97203.00
2019-04-26T11:16:31.116Z,97197.00
2019-04-26T11:19:02.563Z,97209.00
2019-04-26T11:21:34.082Z,97226.00
2019-04-26T11:24:05.461Z,97216.00
2019-04-26T11:26:36.874Z,97221.00
2019-04-26T11:29:08.305Z,97210.00
2019-04-26T11:31:39.749Z,97217.00
2019-04-26T11:34:12.085Z,97209.00
2019-04-26T11:36:43.618Z,97224.00
2019-04-26T11:39:16.583Z,97224.00
2019-04-26T11:41:48.020Z,97226.00
2019-04-26T11:44:23.062Z,97233.00
2019-04-26T11:46:52.565Z,97237.00
2019-04-26T11:49:24.096Z,97235.00
2019-04-26T11:51:58.683Z,97239.00
2019-04-26T11:54:28.611Z,97253.00
2019-04-26T11:57:00.002Z,97244.00
2019-04-26T11:59:31.888Z,97260.00
2019-04-26T12:02:03.384Z,97267.00
2019-04-26T12:04:55.090Z,97270.00
2019-04-26T12:07:32.285Z,97274.00
2019-04-26T12:10:05.905Z,97267.00
2019-04-26T12:12:38.402Z,97267.00
2019-04-26T12:15:10.285Z,97277.00
2019-04-26T12:17:41.721Z,97272.00
2019-04-26T12:20:13.226Z,97270.00
2019-04-26T12:22:44.619Z,97269.00
2019-04-26T12:25:16.145Z,97281.00
2019-04-26T12:27:47.792Z,97282.00
2019-04-26T12:30:19.391Z,97287.00
2019-04-26T12:32:50.885Z,97299.00
2019-04-26T12:35:22.249Z,97297.00
2019-04-26T12:37:54.784Z,97304.00
2019-04-26T12:40:26.766Z,97304.00
2019-04-26T12:42:58.161Z,97320.00
2019-04-26T12:45:40.401Z,97322.00
2019-04-26T12:48:15.798Z,97312.00
2019-04-26T12:50:46.412Z,97318.00
2019-04-26T12:53:18.155Z,97327.00
2019-04-26T12:55:53.664Z,97336.00
2019-04-26T12:58:22.600Z,97329.00
2019-04-26T13:00:54.655Z,97327.00
2019-04-26T13:03:29.211Z,97324.00
2019-04-26T13:05:59.236Z,97318.00
2019-04-26T13:08:31.636Z,97335.00
2019-04-26T13:11:27.460Z,97337.00
2019-04-26T13:14:03.280Z,97336.00
2019-04-26T13:16:57.237Z,97330.00
2019-04-26T13:19:28.584Z,97329.00
2019-04-26T13:22:00.026Z,97341.00
2019-04-26T13:24:35.455Z,97338.00
2019-04-26T13:27:05.898Z,97340.00
2019-04-26T13:29:38.524Z,97347.00
2019-04-26T13:32:09.920Z,97361.00
2019-04-26T13:34:41.264Z,97363.00
2019-04-26T13:37:12.614Z,97376.00
2019-04-26T13:39:43.988Z,97376.00
2019-04-26T13:42:17.430Z,97356.00
2019-04-26T13:45:16.058Z,97366.00
2019-04-26T13:48:05.038Z,97381.00
2019-04-26T13:50:41.697Z,97396.00
2019-04-26T13:53:17.104Z,97407.00
2019-04-26T13:55:48.455Z,97403.00
2019-04-26T13:58:20.966Z,97402.00
2019-04-26T14:00:52.896Z,97411.00
2019-04-26T14:03:27.205Z,97410.00
2019-04-26T14:05:58.446Z,97420.00
2019-04-26T14:08:29.833Z,97415.00
2019-04-26T14:11:01.179Z,97427.00
2019-04-26T14:13:32.784Z,97430.00
2019-04-26T14:16:04.573Z,97433.00
2019-04-26T14:18:38.947Z,97431.00
2019-04-26T14:21:09.034Z,97434.00
2019-04-26T14:24:19.725Z,97446.00
2019-04-26T14:26:57.438Z,97434.00
2019-04-26T14:29:32.363Z,97445.00
2019-04-26T14:32:01.876Z,97468.00
2019-04-26T14:34:36.164Z,97448.00
2019-04-26T14:37:10.833Z,97435.00
2019-04-26T14:39:50.038Z,97461.00
2019-04-26T14:42:12.496Z,97449.00
2019-04-26T14:44:49.634Z,97444.00
2019-04-26T14:47:18.113Z,97432.00
2019-04-26T14:49:53.384Z,97409.00
2019-04-26T14:52:27.419Z,97420.00
2019-04-26T14:54:57.030Z,97432.00
2019-04-26T14:57:31.491Z,97427.00
2019-04-26T15:00:01.524Z,97414.00
2019-04-26T15:03:08.418Z,97436.00
2019-04-26T15:05:58.725Z,97425.00
2019-04-26T15:08:32.167Z,97417.00
2019-04-26T15:11:04.432Z,97400.00
2019-04-26T15:13:40.284Z,97410.00
2019-04-26T15:16:11.709Z,97431.00
2019-04-26T15:18:42.700Z,97436.00
2019-04-26T15:21:14.026Z,97436.00
2019-04-26T15:23:45.437Z,97439.00
2019-04-26T15:26:18.394Z,97427.00
2019-04-26T15:28:51.495Z,97431.00
2019-04-26T15:31:24.991Z,97453.00
2019-04-26T15:33:56.058Z,97442.00
2019-04-26T15:36:27.440Z,97466.00
2019-04-26T15:39:00.278Z,97466.00
2019-04-26T15:41:51.394Z,97470.00
2019-04-26T15:44:38.693Z,97466.00
2019-04-26T15:47:27.414Z,97467.00
2019-04-26T15:50:03.900Z,97481.00
2019-04-26T15:52:36.304Z,97468.00
2019-04-26T15:55:08.084Z,97454.00
2019-04-26T15:57:39.464Z,97467.00
2019-04-26T16:00:12.554Z,97463.00
2019-04-26T16:02:43.999Z,97472.00
2019-04-26T16:05:16.747Z,97465.00
2019-04-26T16:07:48.931Z,97455.00
2019-04-26T16:10:20.308Z,97438.00
2019-04-26T16:12:56.206Z,97431.00
2019-04-26T16:15:25.776Z,97436.00
2019-04-26T16:17:57.149Z,97455.00
2019-04-26T16:20:31.663Z,97456.00
2019-04-26T16:23:06.128Z,97464.00
2019-04-26T16:25:38.396Z,97464.00
2019-04-26T16:28:25.149Z,97462.00
2019-04-26T16:31:15.473Z,97447.00
2019-04-26T16:33:47.685Z,97477.00
2019-04-26T16:36:19.033Z,97501.00
2019-04-26T16:38:56.114Z,97510.00
2019-04-26T16:41:27.220Z,97504.00
2019-04-26T16:43:56.678Z,97494.00
2019-04-26T16:46:28.052Z,97494.00
2019-04-26T16:49:02.277Z,97486.00
2019-04-26T16:51:34.002Z,97494.00
2019-04-26T16:56:38.606Z,97501.00
2019-04-26T16:59:14.312Z,97483.00
2019-04-26T17:01:47.148Z,97487.00
2019-04-26T17:04:19.963Z,97488.00
2019-04-26T17:06:49.435Z,97483.00
2019-04-26T17:09:23.491Z,97484.00
2019-04-26T17:09:38.415Z,97494.00
2019-04-26T17:11:54.021Z,97456.00
2019-04-26T17:14:25.451Z,97465.00
2019-04-26T17:16:56.796Z,97488.00
2019-04-26T17:19:29.719Z,97483.00
2019-04-26T17:22:20.673Z,97495.00
2019-04-26T17:24:57.115Z,97488.00
2019-04-26T17:27:28.485Z,97502.00
2019-04-26T17:29:59.840Z,97505.00
2019-04-26T17:32:31.345Z,97504.00
2019-04-26T17:35:04.871Z,97496.00
2019-04-26T17:37:35.764Z,97519.00
2019-04-26T17:40:07.327Z,97514.00
2019-04-26T17:42:38.644Z,97505.00
2019-04-26T17:45:10.891Z,97521.00
2019-04-26T17:47:42.503Z,97510.00
2019-04-26T17:50:14.178Z,97513.00
2019-04-26T17:52:45.561Z,97520.00
2019-04-26T17:55:16.979Z,97525.00
2019-04-26T17:57:50.252Z,97531.00
2019-04-26T18:00:27.483Z,97537.00
2019-04-26T18:02:57.680Z,97525.00
2019-04-26T18:05:44.957Z,97529.00
2019-04-26T18:08:30.621Z,97528.00
2019-04-26T18:10:40.054Z,97530.00
2019-04-26T18:13:15.971Z,97521.00
2019-04-26T18:15:46.797Z,97537.00
2019-04-26T18:18:34.179Z,97548.00
2019-04-26T18:21:39.392Z,97544.00
2019-04-26T18:24:10.918Z,97525.00
2019-04-26T18:26:42.316Z,97536.00
2019-04-26T18:29:13.672Z,97539.00
2019-04-26T18:31:45.302Z,97549.00
2019-04-26T18:34:16.707Z,97546.00
2019-04-26T18:36:48.021Z,97536.00
2019-04-26T18:39:22.829Z,97536.00
2019-04-26T18:41:53.667Z,97540.00
2019-04-26T18:44:36.325Z,97543.00
2019-04-26T18:47:06.394Z,97548.00
2019-04-26T18:49:37.767Z,97549.00
2019-04-26T18:52:09.119Z,97539.00
2019-04-26T18:54:59.387Z,97550.00
2019-04-26T18:57:30.763Z,97547.00
2019-04-26T19:00:03.819Z,97548.00
2019-04-26T19:02:36.974Z,97545.00
2019-04-26T19:05:08.687Z,97539.00
2019-04-26T19:07:40.032Z,97556.00
2019-04-26T19:10:12.078Z,97541.00
2019-04-26T19:12:45.145Z,97543.00
2019-04-26T19:15:41.726Z,97541.00
2019-04-26T19:18:18.629Z,97537.00
2019-04-26T19:20:59.135Z,97533.00
2019-04-26T19:23:31.985Z,97554.00
2019-04-26T19:26:03.461Z,97555.00
2019-04-26T19:28:35.956Z,97558.00
2019-04-26T19:31:07.951Z,97554.00
2019-04-26T19:33:39.295Z,97560.00
2019-04-26T19:36:13.589Z,97576.00
2019-04-26T19:38:49.758Z,97559.00
2019-04-26T19:41:17.374Z,97565.00
2019-04-26T19:43:52.046Z,97566.00
2019-04-26T19:46:48.495Z,97570.00
2019-04-26T19:49:44.605Z,97570.00
2019-04-26T19:52:39.626Z,97562.00
2019-04-26T19:55:36.377Z,97550.00
2019-04-26T19:58:16.135Z,97554.00
2019-04-26T20:00:46.613Z,97558.00
2019-04-26T20:03:17.050Z,97551.00
2019-04-26T20:05:48.407Z,97551.00
2019-04-26T20:08:21.554Z,97566.00
2019-04-26T20:10:53.773Z,97571.00
2019-04-26T20:13:25.157Z,97575.00
2019-04-26T20:15:57.468Z,97576.00
2019-04-26T20:18:32.778Z,97570.00
2019-04-26T20:21:06.514Z,97579.00
2019-04-26T20:23:38.312Z,97569.00
2019-04-26T20:26:12.031Z,97567.00
2019-04-26T20:28:43.350Z,97556.00
2019-04-26T20:31:44.895Z,97561.00
2019-04-26T20:34:14.457Z,97557.00
2019-04-26T20:36:47.794Z,97554.00
2019-04-26T20:39:20.877Z,97564.00
2019-04-26T20:42:01.106Z,97568.00
2019-04-26T20:44:28.747Z,97560.00
2019-04-26T20:47:00.640Z,97572.00
2019-04-26T20:49:32.205Z,97566.00
2019-04-26T20:52:03.986Z,97572.00
2019-04-26T20:54:35.337Z,97593.00
2019-04-26T20:57:06.688Z,97597.00
2019-04-26T20:59:38.058Z,97595.00
2019-04-26T21:02:09.379Z,97589.00
2019-04-26T21:04:44.114Z,97590.00
2019-04-26T21:07:14.213Z,97595.00
2019-04-26T21:09:45.513Z,97597.00
2019-04-26T21:12:18.441Z,97594.00
2019-04-26T21:14:51.760Z,97587.00
2019-04-26T21:17:27.757Z,97588.00
2019-04-26T21:19:58.662Z,97584.00
2019-04-26T21:22:31.698Z,97584.00
2019-04-26T21:25:08.466Z,97587.00
2019-04-26T21:28:06.772Z,97592.00
2019-04-26T21:31:11.819Z,97572.00
2019-04-26T21:33:47.557Z,97589.00
2019-04-26T21:36:41.017Z,97584.00
2019-04-26T21:39:35.221Z,97589.00
2019-04-26T21:42:05.536Z,97588.00
2019-04-26T21:44:36.897Z,97582.00
2019-04-26T21:47:08.273Z,97577.00
2019-04-26T21:49:39.611Z,97585.00
2019-04-26T21:52:10.994Z,97572.00
2019-04-26T21:54:43.216Z,97577.00
2019-04-26T21:57:14.636Z,97590.00
2019-04-26T21:59:45.985Z,97574.00
2019-04-26T22:02:18.304Z,97583.00
2019-04-26T22:04:49.766Z,97564.00
2019-04-26T22:07:21.102Z,97576.00
2019-04-26T22:10:05.301Z,97580.00
2019-04-26T22:12:36.336Z,97582.00
2019-04-26T22:15:33.688Z,97593.00
2019-04-26T22:18:10.300Z,97580.00
2019-04-26T22:20:52.238Z,97570.00
2019-04-26T22:23:47.643Z,97567.00
2019-04-26T22:26:17.281Z,97585.00
2019-04-26T22:28:48.665Z,97583.00
2019-04-26T22:31:20.006Z,97594.00
2019-04-26T22:33:53.079Z,97592.00
2019-04-26T22:36:27.443Z,97589.00
2019-04-26T22:39:01.744Z,97587.00
2019-04-26T22:41:30.678Z,97586.00
2019-04-26T22:44:17.847Z,97583.00
2019-04-26T22:47:06.931Z,97601.00
2019-04-26T22:49:41.804Z,97601.00
2019-04-26T22:52:15.965Z,97583.00
2019-04-26T22:54:46.515Z,97579.00
2019-04-26T22:57:17.458Z,97583.00
2019-04-26T22:59:50.666Z,97589.00
2019-04-26T23:02:26.215Z,97579.00
2019-04-26T23:04:56.036Z,97570.00
2019-04-26T23:07:28.401Z,97572.00
2019-04-26T23:09:59.790Z,97584.00
2019-04-26T23:12:53.987Z,97562.00
2019-04-26T23:15:37.999Z,97580.00
2019-04-26T23:18:38.798Z,97573.00
2019-04-26T23:21:30.133Z,97568.00
2019-04-26T23:24:01.490Z,97565.00
2019-04-26T23:26:33.477Z,97572.00
2019-04-26T23:29:08.560Z,97579.00
2019-04-26T23:31:41.658Z,97566.00
2019-04-26T23:34:11.009Z,97571.00
2019-04-26T23:36:43.695Z,97573.00
2019-04-26T23:39:15.327Z,97576.00
2019-04-26T23:41:46.663Z,97574.00
2019-04-26T23:44:18.056Z,97580.00
2019-04-26T23:46:49.361Z,97580.00
2019-04-26T23:49:20.773Z,97580.00
2019-04-26T23:51:53.342Z,97588.00
2019-04-26T23:54:28.192Z,97587.00
2019-04-26T23:56:58.983Z,97580.00
2019-04-26T23:59:30.317Z,97574.00
